sensor_id;sensor_type;location;lat;lon;timestamp;P1;durP1;ratioP1;P2;durP2;ratioP2
84937;SDS011;75210;52.210;20.902;2024-01-15T00:00:04;16.92;;;8.00;;
84937;SDS011;75210;52.210;20.902;2024-01-15T00:01:07;14.70;;;8.15;;
84937;SDS011;75210;52.210;20.902;2024-01-15T00:02:08;13.45;;;7.88;;
84937;SDS011;75210;52.210;20.902;2024-01-15T00:03:09;13.57;;;7.47;;
84937;SDS011;75210;52.210;20.902;2024-01-15T00:04:09;13.88;;;8.32;;
84937;SDS011;75210;52.210;20.902;2024-01-15T00:05:10;13.70;;;7.20;;
84937;SDS011;75210;52.210;20.902;2024-01-15T00:06:11;16.13;;;7.78;;
84937;SDS011;75210;52.210;20.902;2024-01-15T00:07:12;16.50;;;7.30;;
84937;SDS011;75210;52.210;20.902;2024-01-15T00:08:13;12.40;;;7.07;;
84937;SDS011;75210;52.210;20.902;2024-01-15T00:09:14;14.95;;;8.23;;
84937;SDS011;75210;52.210;20.902;2024-01-15T00:10:15;17.33;;;8.15;;
84937;SDS011;75210;52.210;20.902;2024-01-15T00:11:15;12.93;;;7.60;;
84937;SDS011;75210;52.210;20.902;2024-01-15T00:12:19;15.23;;;7.43;;
84937;SDS011;75210;52.210;20.902;2024-01-15T00:13:19;16.85;;;7.78;;
84937;SDS011;75210;52.210;20.902;2024-01-15T00:14:20;16.42;;;7.65;;
84937;SDS011;75210;52.210;20.902;2024-01-15T00:15:20;16.40;;;8.57;;
84937;SDS011;75210;52.210;20.902;2024-01-15T00:16:22;16.73;;;7.90;;
84937;SDS011;75210;52.210;20.902;2024-01-15T00:17:23;17.25;;;8.30;;
84937;SDS011;75210;52.210;20.902;2024-01-15T00:18:23;17.50;;;8.63;;
84937;SDS011;75210;52.210;20.902;2024-01-15T00:19:24;15.63;;;7.43;;
84937;SDS011;75210;52.210;20.902;2024-01-15T00:20:24;14.85;;;7.55;;
84937;SDS011;75210;52.210;20.902;2024-01-15T00:21:35;14.43;;;8.02;;
84937;SDS011;75210;52.210;20.902;2024-01-15T00:22:36;13.63;;;7.15;;
84937;SDS011;75210;52.210;20.902;2024-01-15T00:23:36;14.50;;;8.57;;
84937;SDS011;75210;52.210;20.902;2024-01-15T00:24:36;15.07;;;7.60;;
84937;SDS011;75210;52.210;20.902;2024-01-15T00:25:38;15.85;;;8.45;;
84937;SDS011;75210;52.210;20.902;2024-01-15T00:26:39;15.63;;;9.10;;
84937;SDS011;75210;52.210;20.902;2024-01-15T00:27:44;17.85;;;8.25;;
84937;SDS011;75210;52.210;20.902;2024-01-15T00:28:44;15.00;;;7.57;;
84937;SDS011;75210;52.210;20.902;2024-01-15T00:29:46;16.17;;;8.02;;
84937;SDS011;75210;52.210;20.902;2024-01-15T00:30:47;13.43;;;8.00;;
84937;SDS011;75210;52.210;20.902;2024-01-15T00:31:47;15.18;;;8.05;;
84937;SDS011;75210;52.210;20.902;2024-01-15T00:32:49;16.17;;;7.75;;
84937;SDS011;75210;52.210;20.902;2024-01-15T00:33:49;15.40;;;8.35;;
84937;SDS011;75210;52.210;20.902;2024-01-15T00:34:50;14.02;;;7.95;;
84937;SDS011;75210;52.210;20.902;2024-01-15T00:35:51;15.55;;;7.75;;
84937;SDS011;75210;52.210;20.902;2024-01-15T00:36:51;16.52;;;8.70;;
84937;SDS011;75210;52.210;20.902;2024-01-15T00:37:52;15.82;;;7.95;;
84937;SDS011;75210;52.210;20.902;2024-01-15T00:38:53;14.63;;;8.45;;
84937;SDS011;75210;52.210;20.902;2024-01-15T00:39:54;16.10;;;8.98;;
84937;SDS011;75210;52.210;20.902;2024-01-15T00:40:54;14.02;;;7.43;;
84937;SDS011;75210;52.210;20.902;2024-01-15T00:41:55;13.73;;;7.60;;
84937;SDS011;75210;52.210;20.902;2024-01-15T00:42:57;15.68;;;7.80;;
84937;SDS011;75210;52.210;20.902;2024-01-15T00:43:57;13.40;;;7.18;;
84937;SDS011;75210;52.210;20.902;2024-01-15T00:44:58;14.98;;;8.35;;
84937;SDS011;75210;52.210;20.902;2024-01-15T00:46:01;18.45;;;8.80;;
84937;SDS011;75210;52.210;20.902;2024-01-15T00:47:02;16.60;;;7.90;;
84937;SDS011;75210;52.210;20.902;2024-01-15T00:48:02;15.45;;;8.35;;
84937;SDS011;75210;52.210;20.902;2024-01-15T00:49:03;16.85;;;8.45;;
84937;SDS011;75210;52.210;20.902;2024-01-15T00:50:04;12.95;;;7.57;;
84937;SDS011;75210;52.210;20.902;2024-01-15T00:51:05;17.67;;;9.50;;
84937;SDS011;75210;52.210;20.902;2024-01-15T00:52:06;18.45;;;9.68;;
84937;SDS011;75210;52.210;20.902;2024-01-15T00:53:06;13.43;;;7.90;;
84937;SDS011;75210;52.210;20.902;2024-01-15T00:54:07;18.23;;;8.52;;
84937;SDS011;75210;52.210;20.902;2024-01-15T00:55:08;19.17;;;8.77;;
84937;SDS011;75210;52.210;20.902;2024-01-15T00:56:09;15.75;;;8.43;;
84937;SDS011;75210;52.210;20.902;2024-01-15T00:57:09;15.32;;;7.55;;
84937;SDS011;75210;52.210;20.902;2024-01-15T00:58:11;18.65;;;8.95;;
84937;SDS011;75210;52.210;20.902;2024-01-15T00:59:12;19.23;;;10.23;;
84937;SDS011;75210;52.210;20.902;2024-01-15T01:00:13;17.95;;;9.23;;
84937;SDS011;75210;52.210;20.902;2024-01-15T01:01:14;15.95;;;8.73;;
84937;SDS011;75210;52.210;20.902;2024-01-15T01:02:14;12.98;;;7.88;;
84937;SDS011;75210;52.210;20.902;2024-01-15T01:03:15;17.58;;;8.88;;
84937;SDS011;75210;52.210;20.902;2024-01-15T01:04:15;19.98;;;9.55;;
84937;SDS011;75210;52.210;20.902;2024-01-15T01:05:16;17.73;;;9.32;;
84937;SDS011;75210;52.210;20.902;2024-01-15T01:06:17;20.25;;;10.15;;
84937;SDS011;75210;52.210;20.902;2024-01-15T01:07:17;16.25;;;9.02;;
84937;SDS011;75210;52.210;20.902;2024-01-15T01:08:18;18.10;;;9.88;;
84937;SDS011;75210;52.210;20.902;2024-01-15T01:09:18;18.80;;;9.75;;
84937;SDS011;75210;52.210;20.902;2024-01-15T01:10:19;18.13;;;9.35;;
84937;SDS011;75210;52.210;20.902;2024-01-15T01:11:20;22.35;;;9.93;;
84937;SDS011;75210;52.210;20.902;2024-01-15T01:12:20;18.23;;;9.68;;
84937;SDS011;75210;52.210;20.902;2024-01-15T01:13:22;18.45;;;9.05;;
84937;SDS011;75210;52.210;20.902;2024-01-15T01:15:23;20.33;;;9.82;;
84937;SDS011;75210;52.210;20.902;2024-01-15T01:16:23;19.58;;;9.13;;
84937;SDS011;75210;52.210;20.902;2024-01-15T01:17:24;19.58;;;10.25;;
84937;SDS011;75210;52.210;20.902;2024-01-15T01:18:25;19.80;;;9.75;;
84937;SDS011;75210;52.210;20.902;2024-01-15T01:19:27;15.70;;;8.48;;
84937;SDS011;75210;52.210;20.902;2024-01-15T01:20:27;17.75;;;9.50;;
84937;SDS011;75210;52.210;20.902;2024-01-15T01:21:27;16.98;;;9.25;;
84937;SDS011;75210;52.210;20.902;2024-01-15T01:22:28;18.42;;;9.07;;
84937;SDS011;75210;52.210;20.902;2024-01-15T01:23:30;18.55;;;9.90;;
84937;SDS011;75210;52.210;20.902;2024-01-15T01:24:30;20.25;;;10.90;;
84937;SDS011;75210;52.210;20.902;2024-01-15T01:25:31;16.05;;;8.95;;
84937;SDS011;75210;52.210;20.902;2024-01-15T01:26:31;18.38;;;8.45;;
84937;SDS011;75210;52.210;20.902;2024-01-15T01:27:31;20.05;;;10.30;;
84937;SDS011;75210;52.210;20.902;2024-01-15T01:28:34;16.48;;;9.32;;
84937;SDS011;75210;52.210;20.902;2024-01-15T01:30:35;20.60;;;9.73;;
84937;SDS011;75210;52.210;20.902;2024-01-15T01:31:35;18.58;;;9.40;;
84937;SDS011;75210;52.210;20.902;2024-01-15T01:32:35;19.50;;;9.43;;
84937;SDS011;75210;52.210;20.902;2024-01-15T01:33:37;19.98;;;10.43;;
84937;SDS011;75210;52.210;20.902;2024-01-15T01:34:39;18.65;;;10.50;;
84937;SDS011;75210;52.210;20.902;2024-01-15T01:36:41;16.35;;;9.75;;
84937;SDS011;75210;52.210;20.902;2024-01-15T01:37:41;17.02;;;8.57;;
84937;SDS011;75210;52.210;20.902;2024-01-15T01:38:42;20.35;;;10.15;;
84937;SDS011;75210;52.210;20.902;2024-01-15T01:39:43;20.38;;;9.85;;
84937;SDS011;75210;52.210;20.902;2024-01-15T01:40:44;18.60;;;10.43;;
84937;SDS011;75210;52.210;20.902;2024-01-15T01:41:44;17.33;;;10.13;;
84937;SDS011;75210;52.210;20.902;2024-01-15T01:42:44;20.33;;;9.80;;
84937;SDS011;75210;52.210;20.902;2024-01-15T01:43:47;18.50;;;10.07;;
84937;SDS011;75210;52.210;20.902;2024-01-15T01:44:47;17.30;;;9.38;;
84937;SDS011;75210;52.210;20.902;2024-01-15T01:45:47;16.40;;;9.05;;
84937;SDS011;75210;52.210;20.902;2024-01-15T01:46:48;19.85;;;10.43;;
84937;SDS011;75210;52.210;20.902;2024-01-15T01:47:48;15.82;;;9.23;;
84937;SDS011;75210;52.210;20.902;2024-01-15T01:48:51;20.70;;;10.00;;
84937;SDS011;75210;52.210;20.902;2024-01-15T01:49:51;18.90;;;9.57;;
84937;SDS011;75210;52.210;20.902;2024-01-15T01:50:52;19.40;;;10.10;;
84937;SDS011;75210;52.210;20.902;2024-01-15T01:51:55;19.08;;;10.80;;
84937;SDS011;75210;52.210;20.902;2024-01-15T01:52:57;18.05;;;10.82;;
84937;SDS011;75210;52.210;20.902;2024-01-15T01:53:58;18.27;;;10.32;;
84937;SDS011;75210;52.210;20.902;2024-01-15T01:54:59;18.83;;;10.02;;
84937;SDS011;75210;52.210;20.902;2024-01-15T01:56:01;21.42;;;10.45;;
84937;SDS011;75210;52.210;20.902;2024-01-15T01:57:02;17.10;;;9.98;;
84937;SDS011;75210;52.210;20.902;2024-01-15T01:58:05;20.27;;;10.48;;
84937;SDS011;75210;52.210;20.902;2024-01-15T01:59:07;19.02;;;10.52;;
84937;SDS011;75210;52.210;20.902;2024-01-15T02:00:11;21.42;;;11.18;;
84937;SDS011;75210;52.210;20.902;2024-01-15T02:01:13;18.17;;;10.38;;
84937;SDS011;75210;52.210;20.902;2024-01-15T02:02:14;23.35;;;11.68;;
84937;SDS011;75210;52.210;20.902;2024-01-15T02:03:24;20.95;;;11.15;;
84937;SDS011;75210;52.210;20.902;2024-01-15T02:04:25;20.70;;;11.90;;
84937;SDS011;75210;52.210;20.902;2024-01-15T02:05:26;17.85;;;9.77;;
84937;SDS011;75210;52.210;20.902;2024-01-15T02:06:27;16.05;;;9.45;;
84937;SDS011;75210;52.210;20.902;2024-01-15T02:07:28;18.75;;;10.85;;
84937;SDS011;75210;52.210;20.902;2024-01-15T02:08:28;20.25;;;10.38;;
84937;SDS011;75210;52.210;20.902;2024-01-15T02:09:29;16.17;;;9.23;;
84937;SDS011;75210;52.210;20.902;2024-01-15T02:10:29;21.88;;;11.23;;
84937;SDS011;75210;52.210;20.902;2024-01-15T02:11:30;17.70;;;9.30;;
84937;SDS011;75210;52.210;20.902;2024-01-15T02:12:30;20.35;;;11.43;;
84937;SDS011;75210;52.210;20.902;2024-01-15T02:13:30;22.67;;;10.48;;
84937;SDS011;75210;52.210;20.902;2024-01-15T02:14:33;16.15;;;8.68;;
84937;SDS011;75210;52.210;20.902;2024-01-15T02:15:34;21.10;;;10.70;;
84937;SDS011;75210;52.210;20.902;2024-01-15T02:16:34;19.80;;;11.25;;
84937;SDS011;75210;52.210;20.902;2024-01-15T02:17:34;17.98;;;10.68;;
84937;SDS011;75210;52.210;20.902;2024-01-15T02:18:41;20.48;;;10.95;;
84937;SDS011;75210;52.210;20.902;2024-01-15T02:19:42;18.80;;;10.45;;
84937;SDS011;75210;52.210;20.902;2024-01-15T02:20:42;21.77;;;11.30;;
84937;SDS011;75210;52.210;20.902;2024-01-15T02:21:43;18.73;;;10.23;;
84937;SDS011;75210;52.210;20.902;2024-01-15T02:22:43;17.63;;;9.68;;
84937;SDS011;75210;52.210;20.902;2024-01-15T02:23:47;18.63;;;10.27;;
84937;SDS011;75210;52.210;20.902;2024-01-15T02:24:47;17.27;;;9.57;;
84937;SDS011;75210;52.210;20.902;2024-01-15T02:25:48;18.20;;;10.20;;
84937;SDS011;75210;52.210;20.902;2024-01-15T02:26:49;19.67;;;10.65;;
84937;SDS011;75210;52.210;20.902;2024-01-15T02:27:49;18.67;;;9.25;;
84937;SDS011;75210;52.210;20.902;2024-01-15T02:28:50;18.08;;;10.15;;
84937;SDS011;75210;52.210;20.902;2024-01-15T02:29:51;19.85;;;10.43;;
84937;SDS011;75210;52.210;20.902;2024-01-15T02:30:52;21.23;;;10.65;;
84937;SDS011;75210;52.210;20.902;2024-01-15T02:31:52;16.60;;;9.25;;
84937;SDS011;75210;52.210;20.902;2024-01-15T02:32:53;18.13;;;10.07;;
84937;SDS011;75210;52.210;20.902;2024-01-15T02:33:53;15.68;;;9.13;;
84937;SDS011;75210;52.210;20.902;2024-01-15T02:34:53;18.80;;;10.80;;
84937;SDS011;75210;52.210;20.902;2024-01-15T02:35:54;19.83;;;11.00;;
84937;SDS011;75210;52.210;20.902;2024-01-15T02:36:54;19.45;;;10.43;;
84937;SDS011;75210;52.210;20.902;2024-01-15T02:37:56;22.02;;;11.18;;
84937;SDS011;75210;52.210;20.902;2024-01-15T02:38:58;19.77;;;10.95;;
84937;SDS011;75210;52.210;20.902;2024-01-15T02:39:58;17.58;;;10.00;;
84937;SDS011;75210;52.210;20.902;2024-01-15T02:40:59;21.35;;;10.82;;
84937;SDS011;75210;52.210;20.902;2024-01-15T02:41:59;18.33;;;10.23;;
84937;SDS011;75210;52.210;20.902;2024-01-15T02:42:59;20.40;;;10.43;;
84937;SDS011;75210;52.210;20.902;2024-01-15T02:44:00;19.73;;;10.82;;
84937;SDS011;75210;52.210;20.902;2024-01-15T02:45:00;18.05;;;10.13;;
84937;SDS011;75210;52.210;20.902;2024-01-15T02:46:01;19.13;;;10.25;;
84937;SDS011;75210;52.210;20.902;2024-01-15T02:47:01;19.48;;;10.75;;
84937;SDS011;75210;52.210;20.902;2024-01-15T02:48:02;19.35;;;10.55;;
84937;SDS011;75210;52.210;20.902;2024-01-15T02:49:02;20.65;;;10.13;;
84937;SDS011;75210;52.210;20.902;2024-01-15T02:50:03;20.35;;;10.43;;
84937;SDS011;75210;52.210;20.902;2024-01-15T02:51:04;18.58;;;10.40;;
84937;SDS011;75210;52.210;20.902;2024-01-15T02:52:05;22.10;;;11.48;;
84937;SDS011;75210;52.210;20.902;2024-01-15T02:53:05;17.05;;;9.63;;
84937;SDS011;75210;52.210;20.902;2024-01-15T02:54:09;18.90;;;10.52;;
84937;SDS011;75210;52.210;20.902;2024-01-15T02:55:09;18.52;;;10.38;;
84937;SDS011;75210;52.210;20.902;2024-01-15T02:56:09;18.27;;;10.45;;
84937;SDS011;75210;52.210;20.902;2024-01-15T02:57:10;17.60;;;10.52;;
84937;SDS011;75210;52.210;20.902;2024-01-15T02:58:10;17.27;;;10.27;;
84937;SDS011;75210;52.210;20.902;2024-01-15T02:59:11;18.40;;;9.95;;
84937;SDS011;75210;52.210;20.902;2024-01-15T03:00:11;18.33;;;10.00;;
84937;SDS011;75210;52.210;20.902;2024-01-15T03:01:12;22.92;;;10.40;;
84937;SDS011;75210;52.210;20.902;2024-01-15T03:02:13;18.02;;;9.32;;
84937;SDS011;75210;52.210;20.902;2024-01-15T03:03:13;19.05;;;10.48;;
84937;SDS011;75210;52.210;20.902;2024-01-15T03:04:13;20.95;;;10.55;;
84937;SDS011;75210;52.210;20.902;2024-01-15T03:05:14;16.60;;;9.10;;
84937;SDS011;75210;52.210;20.902;2024-01-15T03:06:15;20.73;;;10.60;;
84937;SDS011;75210;52.210;20.902;2024-01-15T03:07:15;19.27;;;10.18;;
84937;SDS011;75210;52.210;20.902;2024-01-15T03:08:15;17.73;;;9.85;;
84937;SDS011;75210;52.210;20.902;2024-01-15T03:09:19;20.20;;;9.60;;
84937;SDS011;75210;52.210;20.902;2024-01-15T03:10:20;20.65;;;10.30;;
84937;SDS011;75210;52.210;20.902;2024-01-15T03:11:20;18.15;;;9.80;;
84937;SDS011;75210;52.210;20.902;2024-01-15T03:12:20;17.90;;;9.00;;
84937;SDS011;75210;52.210;20.902;2024-01-15T03:13:21;20.00;;;10.07;;
84937;SDS011;75210;52.210;20.902;2024-01-15T03:14:21;23.10;;;10.90;;
84937;SDS011;75210;52.210;20.902;2024-01-15T03:15:22;21.55;;;11.30;;
84937;SDS011;75210;52.210;20.902;2024-01-15T03:16:23;25.35;;;12.30;;
84937;SDS011;75210;52.210;20.902;2024-01-15T03:17:23;22.92;;;11.60;;
84937;SDS011;75210;52.210;20.902;2024-01-15T03:18:24;20.95;;;10.18;;
84937;SDS011;75210;52.210;20.902;2024-01-15T03:19:24;22.00;;;11.82;;
84937;SDS011;75210;52.210;20.902;2024-01-15T03:20:25;26.65;;;11.98;;
84937;SDS011;75210;52.210;20.902;2024-01-15T03:21:25;21.25;;;10.02;;
84937;SDS011;75210;52.210;20.902;2024-01-15T03:22:26;21.52;;;11.15;;
84937;SDS011;75210;52.210;20.902;2024-01-15T03:23:26;24.30;;;11.43;;
84937;SDS011;75210;52.210;20.902;2024-01-15T03:24:29;23.90;;;11.63;;
84937;SDS011;75210;52.210;20.902;2024-01-15T03:25:29;21.20;;;10.43;;
84937;SDS011;75210;52.210;20.902;2024-01-15T03:26:30;21.42;;;11.10;;
84937;SDS011;75210;52.210;20.902;2024-01-15T03:27:30;23.13;;;10.57;;
84937;SDS011;75210;52.210;20.902;2024-01-15T03:28:31;23.02;;;11.77;;
84937;SDS011;75210;52.210;20.902;2024-01-15T03:29:31;19.35;;;10.23;;
84937;SDS011;75210;52.210;20.902;2024-01-15T03:30:33;22.48;;;11.73;;
84937;SDS011;75210;52.210;20.902;2024-01-15T03:31:33;17.58;;;9.60;;
84937;SDS011;75210;52.210;20.902;2024-01-15T03:32:34;21.20;;;11.48;;
84937;SDS011;75210;52.210;20.902;2024-01-15T03:33:34;20.65;;;10.95;;
84937;SDS011;75210;52.210;20.902;2024-01-15T03:34:34;17.92;;;10.32;;
84937;SDS011;75210;52.210;20.902;2024-01-15T03:35:35;22.05;;;11.82;;
84937;SDS011;75210;52.210;20.902;2024-01-15T03:36:35;22.13;;;11.63;;
84937;SDS011;75210;52.210;20.902;2024-01-15T03:37:36;21.50;;;10.95;;
84937;SDS011;75210;52.210;20.902;2024-01-15T03:38:39;22.15;;;11.07;;
84937;SDS011;75210;52.210;20.902;2024-01-15T03:39:43;21.75;;;10.13;;
84937;SDS011;75210;52.210;20.902;2024-01-15T03:40:43;22.17;;;11.45;;
84937;SDS011;75210;52.210;20.902;2024-01-15T03:41:44;20.10;;;11.05;;
84937;SDS011;75210;52.210;20.902;2024-01-15T03:42:44;17.58;;;9.80;;
84937;SDS011;75210;52.210;20.902;2024-01-15T03:43:45;20.55;;;11.10;;
84937;SDS011;75210;52.210;20.902;2024-01-15T03:44:46;21.13;;;11.98;;
84937;SDS011;75210;52.210;20.902;2024-01-15T03:45:46;17.50;;;10.10;;
84937;SDS011;75210;52.210;20.902;2024-01-15T03:46:47;24.15;;;11.13;;
84937;SDS011;75210;52.210;20.902;2024-01-15T03:47:47;20.38;;;10.70;;
84937;SDS011;75210;52.210;20.902;2024-01-15T03:48:47;18.75;;;10.38;;
84937;SDS011;75210;52.210;20.902;2024-01-15T03:49:48;19.48;;;8.90;;
84937;SDS011;75210;52.210;20.902;2024-01-15T03:50:48;19.27;;;10.85;;
84937;SDS011;75210;52.210;20.902;2024-01-15T03:51:49;20.25;;;9.95;;
84937;SDS011;75210;52.210;20.902;2024-01-15T03:52:49;21.33;;;11.80;;
84937;SDS011;75210;52.210;20.902;2024-01-15T03:53:50;22.13;;;10.88;;
84937;SDS011;75210;52.210;20.902;2024-01-15T03:54:52;21.85;;;10.95;;
84937;SDS011;75210;52.210;20.902;2024-01-15T03:55:53;16.88;;;8.85;;
84937;SDS011;75210;52.210;20.902;2024-01-15T03:56:53;20.30;;;10.45;;
84937;SDS011;75210;52.210;20.902;2024-01-15T03:57:54;17.30;;;9.90;;
84937;SDS011;75210;52.210;20.902;2024-01-15T03:58:54;21.33;;;10.75;;
84937;SDS011;75210;52.210;20.902;2024-01-15T03:59:55;19.55;;;9.80;;
84937;SDS011;75210;52.210;20.902;2024-01-15T04:00:55;19.38;;;9.63;;
84937;SDS011;75210;52.210;20.902;2024-01-15T04:01:56;19.58;;;10.70;;
84937;SDS011;75210;52.210;20.902;2024-01-15T04:02:56;21.38;;;11.02;;
84937;SDS011;75210;52.210;20.902;2024-01-15T04:03:57;18.85;;;10.90;;
84937;SDS011;75210;52.210;20.902;2024-01-15T04:04:57;21.05;;;10.25;;
84937;SDS011;75210;52.210;20.902;2024-01-15T04:05:58;18.75;;;9.93;;
84937;SDS011;75210;52.210;20.902;2024-01-15T04:06:58;15.35;;;8.68;;
84937;SDS011;75210;52.210;20.902;2024-01-15T04:07:58;20.75;;;10.93;;
84937;SDS011;75210;52.210;20.902;2024-01-15T04:08:59;19.67;;;9.98;;
84937;SDS011;75210;52.210;20.902;2024-01-15T04:10:01;17.02;;;9.32;;
84937;SDS011;75210;52.210;20.902;2024-01-15T04:11:02;19.20;;;10.57;;
84937;SDS011;75210;52.210;20.902;2024-01-15T04:12:03;17.52;;;9.18;;
84937;SDS011;75210;52.210;20.902;2024-01-15T04:13:03;18.20;;;9.30;;
84937;SDS011;75210;52.210;20.902;2024-01-15T04:14:04;17.05;;;9.20;;
84937;SDS011;75210;52.210;20.902;2024-01-15T04:15:05;15.88;;;9.32;;
84937;SDS011;75210;52.210;20.902;2024-01-15T04:16:06;19.05;;;10.13;;
84937;SDS011;75210;52.210;20.902;2024-01-15T04:17:06;18.38;;;9.88;;
84937;SDS011;75210;52.210;20.902;2024-01-15T04:18:07;18.92;;;9.93;;
84937;SDS011;75210;52.210;20.902;2024-01-15T04:19:07;19.65;;;9.20;;
84937;SDS011;75210;52.210;20.902;2024-01-15T04:20:08;17.13;;;9.50;;
84937;SDS011;75210;52.210;20.902;2024-01-15T04:21:09;17.42;;;8.80;;
84937;SDS011;75210;52.210;20.902;2024-01-15T04:22:09;17.05;;;8.90;;
84937;SDS011;75210;52.210;20.902;2024-01-15T04:23:09;17.35;;;9.30;;
84937;SDS011;75210;52.210;20.902;2024-01-15T04:24:10;16.73;;;8.90;;
84937;SDS011;75210;52.210;20.902;2024-01-15T04:25:12;16.92;;;8.10;;
84937;SDS011;75210;52.210;20.902;2024-01-15T04:27:13;17.05;;;8.45;;
84937;SDS011;75210;52.210;20.902;2024-01-15T04:28:14;17.98;;;8.75;;
84937;SDS011;75210;52.210;20.902;2024-01-15T04:29:14;16.05;;;8.60;;
84937;SDS011;75210;52.210;20.902;2024-01-15T04:30:15;17.23;;;9.43;;
84937;SDS011;75210;52.210;20.902;2024-01-15T04:31:22;16.65;;;9.00;;
84937;SDS011;75210;52.210;20.902;2024-01-15T04:32:23;17.63;;;9.40;;
84937;SDS011;75210;52.210;20.902;2024-01-15T04:33:24;20.65;;;9.90;;
84937;SDS011;75210;52.210;20.902;2024-01-15T04:34:24;15.20;;;8.52;;
84937;SDS011;75210;52.210;20.902;2024-01-15T04:35:26;18.90;;;9.43;;
84937;SDS011;75210;52.210;20.902;2024-01-15T04:36:27;16.27;;;7.68;;
84937;SDS011;75210;52.210;20.902;2024-01-15T04:37:27;15.48;;;8.48;;
84937;SDS011;75210;52.210;20.902;2024-01-15T04:38:28;15.32;;;8.65;;
84937;SDS011;75210;52.210;20.902;2024-01-15T04:39:28;16.35;;;8.75;;
84937;SDS011;75210;52.210;20.902;2024-01-15T04:40:30;23.30;;;9.32;;
84937;SDS011;75210;52.210;20.902;2024-01-15T04:42:31;16.20;;;8.10;;
84937;SDS011;75210;52.210;20.902;2024-01-15T04:43:31;14.38;;;8.20;;
84937;SDS011;75210;52.210;20.902;2024-01-15T04:44:32;16.27;;;8.35;;
84937;SDS011;75210;52.210;20.902;2024-01-15T04:45:32;14.95;;;7.85;;
84937;SDS011;75210;52.210;20.902;2024-01-15T04:46:33;17.08;;;8.45;;
84937;SDS011;75210;52.210;20.902;2024-01-15T04:47:33;15.40;;;7.80;;
84937;SDS011;75210;52.210;20.902;2024-01-15T04:48:34;15.52;;;8.68;;
84937;SDS011;75210;52.210;20.902;2024-01-15T04:49:35;16.85;;;8.82;;
84937;SDS011;75210;52.210;20.902;2024-01-15T04:50:35;18.58;;;9.65;;
84937;SDS011;75210;52.210;20.902;2024-01-15T04:51:36;15.93;;;7.85;;
84937;SDS011;75210;52.210;20.902;2024-01-15T04:52:36;16.45;;;8.77;;
84937;SDS011;75210;52.210;20.902;2024-01-15T04:53:36;16.65;;;8.73;;
84937;SDS011;75210;52.210;20.902;2024-01-15T04:54:38;15.13;;;8.43;;
84937;SDS011;75210;52.210;20.902;2024-01-15T04:55:41;16.73;;;9.27;;
84937;SDS011;75210;52.210;20.902;2024-01-15T04:56:42;15.73;;;7.82;;
84937;SDS011;75210;52.210;20.902;2024-01-15T04:57:42;15.07;;;8.35;;
84937;SDS011;75210;52.210;20.902;2024-01-15T04:58:46;16.73;;;9.18;;
84937;SDS011;75210;52.210;20.902;2024-01-15T04:59:46;14.27;;;8.52;;
84937;SDS011;75210;52.210;20.902;2024-01-15T05:00:47;15.38;;;7.95;;
84937;SDS011;75210;52.210;20.902;2024-01-15T05:01:47;16.45;;;8.40;;
84937;SDS011;75210;52.210;20.902;2024-01-15T05:02:48;15.60;;;8.32;;
84937;SDS011;75210;52.210;20.902;2024-01-15T05:03:48;15.68;;;8.38;;
84937;SDS011;75210;52.210;20.902;2024-01-15T05:04:49;15.60;;;8.75;;
84937;SDS011;75210;52.210;20.902;2024-01-15T05:05:49;12.75;;;7.30;;
84937;SDS011;75210;52.210;20.902;2024-01-15T05:06:50;14.23;;;7.85;;
84937;SDS011;75210;52.210;20.902;2024-01-15T05:07:50;17.30;;;8.27;;
84937;SDS011;75210;52.210;20.902;2024-01-15T05:08:51;13.98;;;8.18;;
84937;SDS011;75210;52.210;20.902;2024-01-15T05:09:51;17.58;;;9.23;;
84937;SDS011;75210;52.210;20.902;2024-01-15T05:10:53;15.55;;;8.35;;
84937;SDS011;75210;52.210;20.902;2024-01-15T05:12:57;16.95;;;8.43;;
84937;SDS011;75210;52.210;20.902;2024-01-15T05:13:58;16.52;;;8.88;;
84937;SDS011;75210;52.210;20.902;2024-01-15T05:14:58;12.75;;;6.88;;
84937;SDS011;75210;52.210;20.902;2024-01-15T05:15:59;15.55;;;8.18;;
84937;SDS011;75210;52.210;20.902;2024-01-15T05:16:59;18.42;;;8.68;;
84937;SDS011;75210;52.210;20.902;2024-01-15T05:18:00;15.68;;;8.40;;
84937;SDS011;75210;52.210;20.902;2024-01-15T05:19:00;17.23;;;9.10;;
84937;SDS011;75210;52.210;20.902;2024-01-15T05:20:01;13.85;;;8.40;;
84937;SDS011;75210;52.210;20.902;2024-01-15T05:21:01;14.40;;;8.00;;
84937;SDS011;75210;52.210;20.902;2024-01-15T05:22:02;13.95;;;7.78;;
84937;SDS011;75210;52.210;20.902;2024-01-15T05:23:03;14.25;;;8.07;;
84937;SDS011;75210;52.210;20.902;2024-01-15T05:24:04;16.38;;;9.38;;
84937;SDS011;75210;52.210;20.902;2024-01-15T05:25:04;15.70;;;9.10;;
84937;SDS011;75210;52.210;20.902;2024-01-15T05:26:08;19.10;;;8.85;;
84937;SDS011;75210;52.210;20.902;2024-01-15T05:27:09;17.13;;;8.77;;
84937;SDS011;75210;52.210;20.902;2024-01-15T05:28:09;16.02;;;8.18;;
84937;SDS011;75210;52.210;20.902;2024-01-15T05:29:11;16.52;;;8.55;;
84937;SDS011;75210;52.210;20.902;2024-01-15T05:30:12;15.52;;;8.23;;
84937;SDS011;75210;52.210;20.902;2024-01-15T05:31:13;13.48;;;7.22;;
84937;SDS011;75210;52.210;20.902;2024-01-15T05:32:14;15.80;;;8.63;;
84937;SDS011;75210;52.210;20.902;2024-01-15T05:33:14;16.42;;;8.57;;
84937;SDS011;75210;52.210;20.902;2024-01-15T05:34:14;15.63;;;8.73;;
84937;SDS011;75210;52.210;20.902;2024-01-15T05:35:16;15.73;;;8.80;;
84937;SDS011;75210;52.210;20.902;2024-01-15T05:36:17;15.20;;;8.85;;
84937;SDS011;75210;52.210;20.902;2024-01-15T05:37:17;18.52;;;10.05;;
84937;SDS011;75210;52.210;20.902;2024-01-15T05:38:18;16.25;;;8.73;;
84937;SDS011;75210;52.210;20.902;2024-01-15T05:39:19;16.27;;;8.68;;
84937;SDS011;75210;52.210;20.902;2024-01-15T05:40:19;17.25;;;8.52;;
84937;SDS011;75210;52.210;20.902;2024-01-15T05:41:21;17.65;;;9.13;;
84937;SDS011;75210;52.210;20.902;2024-01-15T05:42:22;14.20;;;8.00;;
84937;SDS011;75210;52.210;20.902;2024-01-15T05:43:22;15.98;;;8.93;;
84937;SDS011;75210;52.210;20.902;2024-01-15T05:44:23;15.68;;;7.97;;
84937;SDS011;75210;52.210;20.902;2024-01-15T05:45:23;17.88;;;8.73;;
84937;SDS011;75210;52.210;20.902;2024-01-15T05:46:26;15.80;;;7.90;;
84937;SDS011;75210;52.210;20.902;2024-01-15T05:47:26;16.90;;;8.57;;
84937;SDS011;75210;52.210;20.902;2024-01-15T05:48:26;14.15;;;8.07;;
84937;SDS011;75210;52.210;20.902;2024-01-15T05:49:27;14.18;;;8.35;;
84937;SDS011;75210;52.210;20.902;2024-01-15T05:50:27;16.38;;;8.23;;
84937;SDS011;75210;52.210;20.902;2024-01-15T05:51:28;14.45;;;7.68;;
84937;SDS011;75210;52.210;20.902;2024-01-15T05:52:28;15.23;;;8.25;;
84937;SDS011;75210;52.210;20.902;2024-01-15T05:53:33;16.23;;;8.63;;
84937;SDS011;75210;52.210;20.902;2024-01-15T05:54:33;17.95;;;8.77;;
84937;SDS011;75210;52.210;20.902;2024-01-15T05:55:35;15.57;;;8.90;;
84937;SDS011;75210;52.210;20.902;2024-01-15T05:56:37;15.27;;;8.82;;
84937;SDS011;75210;52.210;20.902;2024-01-15T05:57:38;14.52;;;8.05;;
84937;SDS011;75210;52.210;20.902;2024-01-15T05:58:38;14.90;;;8.35;;
84937;SDS011;75210;52.210;20.902;2024-01-15T05:59:39;16.73;;;9.32;;